sensor_id;sensor_type;location;lat;lon;timestamp;pressure;altitude;pressure_sealevel;temperature;humidity
32747;BME280;19118;50.860;13.662;2022-10-13T00:00:00;97527.16;;;8.86;100.00
32747;BME280;19118;50.860;13.662;2022-10-13T00:05:01;97518.84;;;8.74;100.00
32747;BME280;19118;50.860;13.662;2022-10-13T00:10:02;97526.84;;;8.50;100.00
32747;BME280;19118;50.860;13.662;2022-10-13T00:15:06;97515.75;;;8.62;100.00
32747;BME280;19118;50.860;13.662;2022-10-13T00:20:07;97508.56;;;8.48;100.00
32747;BME280;19118;50.860;13.662;2022-10-13T00:25:08;97505.78;;;8.33;100.00
32747;BME280;19118;50.860;13.662;2022-10-13T00:30:09;97502.03;;;8.28;100.00
32747;BME280;19118;50.860;13.662;2022-10-13T00:35:12;97511.78;;;8.19;100.00
32747;BME280;19118;50.860;13.662;2022-10-13T00:40:12;97519.03;;;8.17;100.00
32747;BME280;19118;50.860;13.662;2022-10-13T00:50:19;97514.38;;;8.35;100.00
32747;BME280;19118;50.860;13.662;2022-10-13T00:55:29;97516.25;;;8.10;100.00
32747;BME280;19118;50.860;13.662;2022-10-13T01:00:32;97510.25;;;8.33;100.00
32747;BME280;19118;50.860;13.662;2022-10-13T01:05:33;97506.53;;;8.03;100.00
32747;BME280;19118;50.860;13.662;2022-10-13T01:11:13;97506.75;;;7.85;100.00
32747;BME280;19118;50.860;13.662;2022-10-13T01:16:27;97500.03;;;7.82;100.00
32747;BME280;19118;50.860;13.662;2022-10-13T01:21:40;97504.00;;;7.62;100.00
32747;BME280;19118;50.860;13.662;2022-10-13T01:37:48;97505.16;;;7.19;100.00
32747;BME280;19118;50.860;13.662;2022-10-13T01:47:58;97497.78;;;7.14;100.00
32747;BME280;19118;50.860;13.662;2022-10-13T01:53:02;97495.44;;;6.95;100.00
32747;BME280;19118;50.860;13.662;2022-10-13T01:58:04;97493.47;;;6.81;100.00
32747;BME280;19118;50.860;13.662;2022-10-13T02:03:13;97488.50;;;6.69;100.00
32747;BME280;19118;50.860;13.662;2022-10-13T02:08:22;97483.88;;;6.63;100.00
32747;BME280;19118;50.860;13.662;2022-10-13T02:13:27;97486.69;;;6.70;100.00
32747;BME280;19118;50.860;13.662;2022-10-13T02:18:32;97479.63;;;6.70;100.00
32747;BME280;19118;50.860;13.662;2022-10-13T02:23:33;97487.03;;;6.75;100.00
32747;BME280;19118;50.860;13.662;2022-10-13T02:28:36;97486.88;;;6.68;100.00
32747;BME280;19118;50.860;13.662;2022-10-13T02:33:37;97478.47;;;6.65;100.00
32747;BME280;19118;50.860;13.662;2022-10-13T02:38:37;97473.03;;;6.66;100.00
32747;BME280;19118;50.860;13.662;2022-10-13T02:43:37;97474.31;;;6.54;100.00
32747;BME280;19118;50.860;13.662;2022-10-13T02:48:38;97472.69;;;6.53;100.00
32747;BME280;19118;50.860;13.662;2022-10-13T02:53:38;97481.22;;;6.55;100.00
32747;BME280;19118;50.860;13.662;2022-10-13T02:58:38;97461.84;;;6.56;100.00
32747;BME280;19118;50.860;13.662;2022-10-13T03:03:39;97470.41;;;6.58;100.00
32747;BME280;19118;50.860;13.662;2022-10-13T03:08:40;97466.47;;;6.62;100.00
32747;BME280;19118;50.860;13.662;2022-10-13T03:13:40;97472.44;;;6.81;100.00
32747;BME280;19118;50.860;13.662;2022-10-13T03:18:41;97471.09;;;6.77;100.00
32747;BME280;19118;50.860;13.662;2022-10-13T03:23:41;97464.34;;;6.58;100.00
32747;BME280;19118;50.860;13.662;2022-10-13T03:28:42;97460.66;;;6.42;100.00
32747;BME280;19118;50.860;13.662;2022-10-13T03:33:43;97459.16;;;6.24;100.00
32747;BME280;19118;50.860;13.662;2022-10-13T03:38:44;97461.53;;;6.09;100.00
32747;BME280;19118;50.860;13.662;2022-10-13T03:43:44;97461.66;;;5.99;100.00
32747;BME280;19118;50.860;13.662;2022-10-13T03:48:46;97463.66;;;6.05;100.00
32747;BME280;19118;50.860;13.662;2022-10-13T03:53:48;97460.75;;;6.17;100.00
32747;BME280;19118;50.860;13.662;2022-10-13T03:58:49;97458.53;;;6.38;100.00
32747;BME280;19118;50.860;13.662;2022-10-13T04:03:54;97459.03;;;6.41;100.00
32747;BME280;19118;50.860;13.662;2022-10-13T04:08:54;97458.19;;;6.41;100.00
32747;BME280;19118;50.860;13.662;2022-10-13T04:13:56;97457.88;;;6.44;100.00
32747;BME280;19118;50.860;13.662;2022-10-13T04:18:59;97463.94;;;6.45;100.00
32747;BME280;19118;50.860;13.662;2022-10-13T04:24:01;97450.84;;;6.53;100.00
32747;BME280;19118;50.860;13.662;2022-10-13T04:29:03;97458.91;;;6.67;100.00
32747;BME280;19118;50.860;13.662;2022-10-13T04:34:04;97455.19;;;6.94;100.00
32747;BME280;19118;50.860;13.662;2022-10-13T04:39:06;97456.84;;;7.28;100.00
32747;BME280;19118;50.860;13.662;2022-10-13T04:44:08;97458.47;;;7.29;100.00
32747;BME280;19118;50.860;13.662;2022-10-13T04:49:09;97446.78;;;7.48;100.00
32747;BME280;19118;50.860;13.662;2022-10-13T04:54:11;97440.28;;;7.83;100.00
32747;BME280;19118;50.860;13.662;2022-10-13T04:59:12;97435.13;;;7.98;100.00
32747;BME280;19118;50.860;13.662;2022-10-13T05:04:13;97430.13;;;8.19;100.00
32747;BME280;19118;50.860;13.662;2022-10-13T05:09:14;97427.78;;;8.24;100.00
32747;BME280;19118;50.860;13.662;2022-10-13T05:14:17;97420.25;;;8.52;100.00
32747;BME280;19118;50.860;13.662;2022-10-13T05:19:18;97423.19;;;8.80;100.00
32747;BME280;19118;50.860;13.662;2022-10-13T05:24:19;97422.78;;;8.91;100.00
32747;BME280;19118;50.860;13.662;2022-10-13T05:29:29;97418.84;;;9.10;100.00
32747;BME280;19118;50.860;13.662;2022-10-13T05:34:30;97417.53;;;9.29;100.00
32747;BME280;19118;50.860;13.662;2022-10-13T05:39:31;97410.25;;;9.31;100.00
32747;BME280;19118;50.860;13.662;2022-10-13T05:44:32;97397.50;;;9.20;100.00
32747;BME280;19118;50.860;13.662;2022-10-13T05:49:32;97403.94;;;9.17;100.00
32747;BME280;19118;50.860;13.662;2022-10-13T05:54:39;97404.03;;;9.24;100.00
32747;BME280;19118;50.860;13.662;2022-10-13T05:59:47;97402.91;;;9.41;100.00
32747;BME280;19118;50.860;13.662;2022-10-13T06:04:51;97400.00;;;9.66;100.00
32747;BME280;19118;50.860;13.662;2022-10-13T06:09:52;97389.88;;;9.84;100.00
32747;BME280;19118;50.860;13.662;2022-10-13T06:14:53;97396.19;;;9.98;100.00
32747;BME280;19118;50.860;13.662;2022-10-13T06:19:53;97393.91;;;9.80;100.00
32747;BME280;19118;50.860;13.662;2022-10-13T06:24:53;97384.97;;;9.66;100.00
32747;BME280;19118;50.860;13.662;2022-10-13T06:29:54;97387.44;;;9.53;100.00
32747;BME280;19118;50.860;13.662;2022-10-13T06:34:54;97390.72;;;9.40;100.00
32747;BME280;19118;50.860;13.662;2022-10-13T06:39:55;97395.59;;;9.28;100.00
32747;BME280;19118;50.860;13.662;2022-10-13T06:44:55;97396.44;;;9.29;100.00
32747;BME280;19118;50.860;13.662;2022-10-13T06:49:55;97399.25;;;9.42;100.00
32747;BME280;19118;50.860;13.662;2022-10-13T06:54:56;97412.28;;;9.58;100.00
32747;BME280;19118;50.860;13.662;2022-10-13T06:59:56;97411.22;;;9.97;100.00
32747;BME280;19118;50.860;13.662;2022-10-13T07:04:57;97409.19;;;10.14;100.00
32747;BME280;19118;50.860;13.662;2022-10-13T07:09:57;97407.69;;;10.41;100.00
32747;BME280;19118;50.860;13.662;2022-10-13T07:14:57;97404.72;;;10.65;100.00
32747;BME280;19118;50.860;13.662;2022-10-13T07:19:58;97413.53;;;10.94;100.00
32747;BME280;19118;50.860;13.662;2022-10-13T07:24:58;97409.88;;;11.16;100.00
32747;BME280;19118;50.860;13.662;2022-10-13T07:29:59;97406.72;;;11.55;100.00
32747;BME280;19118;50.860;13.662;2022-10-13T07:34:59;97405.97;;;11.96;100.00
32747;BME280;19118;50.860;13.662;2022-10-13T07:40:00;97401.88;;;12.41;98.98
32747;BME280;19118;50.860;13.662;2022-10-13T07:45:03;97400.28;;;12.53;97.71
32747;BME280;19118;50.860;13.662;2022-10-13T07:50:05;97405.59;;;12.53;96.17
32747;BME280;19118;50.860;13.662;2022-10-13T07:55:06;97397.00;;;12.51;96.29
32747;BME280;19118;50.860;13.662;2022-10-13T08:00:07;97397.78;;;12.45;96.02
32747;BME280;19118;50.860;13.662;2022-10-13T08:05:12;97382.69;;;12.39;96.02
32747;BME280;19118;50.860;13.662;2022-10-13T08:10:13;97385.56;;;12.44;96.54
32747;BME280;19118;50.860;13.662;2022-10-13T08:15:13;97376.19;;;12.55;95.47
32747;BME280;19118;50.860;13.662;2022-10-13T08:20:14;97380.69;;;12.54;94.99
32747;BME280;19118;50.860;13.662;2022-10-13T08:25:14;97381.91;;;12.52;96.08
32747;BME280;19118;50.860;13.662;2022-10-13T08:30:15;97377.47;;;12.79;94.98
32747;BME280;19118;50.860;13.662;2022-10-13T08:35:15;97371.91;;;12.54;95.54
32747;BME280;19118;50.860;13.662;2022-10-13T08:40:18;97346.81;;;12.57;96.32
32747;BME280;19118;50.860;13.662;2022-10-13T08:45:26;97356.69;;;12.96;94.62
32747;BME280;19118;50.860;13.662;2022-10-13T08:50:31;97349.75;;;13.28;91.06
32747;BME280;19118;50.860;13.662;2022-10-13T08:55:39;97344.78;;;13.64;88.19
32747;BME280;19118;50.860;13.662;2022-10-13T09:00:40;97341.59;;;14.01;86.72
32747;BME280;19118;50.860;13.662;2022-10-13T09:05:47;97341.31;;;14.15;83.54
32747;BME280;19118;50.860;13.662;2022-10-13T09:10:52;97333.25;;;14.35;83.35
32747;BME280;19118;50.860;13.662;2022-10-13T09:15:52;97326.38;;;14.59;81.94
32747;BME280;19118;50.860;13.662;2022-10-13T09:21:08;97324.63;;;14.78;81.08
32747;BME280;19118;50.860;13.662;2022-10-13T09:26:20;97324.50;;;14.98;79.68
32747;BME280;19118;50.860;13.662;2022-10-13T09:31:26;97320.53;;;15.07;79.03
32747;BME280;19118;50.860;13.662;2022-10-13T09:36:28;97330.94;;;14.83;79.10
32747;BME280;19118;50.860;13.662;2022-10-13T09:41:30;97333.75;;;14.19;79.64
32747;BME280;19118;50.860;13.662;2022-10-13T09:46:45;97327.31;;;14.40;79.45
32747;BME280;19118;50.860;13.662;2022-10-13T09:51:47;97328.03;;;14.15;80.90
32747;BME280;19118;50.860;13.662;2022-10-13T09:56:58;97322.31;;;14.56;79.30
32747;BME280;19118;50.860;13.662;2022-10-13T10:02:17;97315.22;;;15.25;77.21
32747;BME280;19118;50.860;13.662;2022-10-13T10:07:22;97327.88;;;15.73;75.71
32747;BME280;19118;50.860;13.662;2022-10-13T10:12:27;97321.63;;;16.34;73.70
32747;BME280;19118;50.860;13.662;2022-10-13T10:17:43;97314.84;;;16.62;72.56
32747;BME280;19118;50.860;13.662;2022-10-13T10:23:13;97304.16;;;16.80;71.06
32747;BME280;19118;50.860;13.662;2022-10-13T10:28:31;97306.84;;;17.50;69.54
32747;BME280;19118;50.860;13.662;2022-10-13T10:33:53;97295.47;;;17.43;68.72
32747;BME280;19118;50.860;13.662;2022-10-13T10:39:07;97293.13;;;17.82;69.39
32747;BME280;19118;50.860;13.662;2022-10-13T10:44:15;97291.63;;;17.74;68.46
32747;BME280;19118;50.860;13.662;2022-10-13T10:49:30;97287.91;;;17.52;68.94
32747;BME280;19118;50.860;13.662;2022-10-13T10:54:44;97278.25;;;17.74;68.55
32747;BME280;19118;50.860;13.662;2022-10-13T11:00:04;97269.75;;;17.77;68.26
32747;BME280;19118;50.860;13.662;2022-10-13T11:05:05;97271.16;;;17.56;67.84
32747;BME280;19118;50.860;13.662;2022-10-13T11:15:22;97255.09;;;17.68;68.28
32747;BME280;19118;50.860;13.662;2022-10-13T11:25:41;97229.31;;;17.50;69.34
32747;BME280;19118;50.860;13.662;2022-10-13T11:30:48;97219.34;;;17.86;66.48
32747;BME280;19118;50.860;13.662;2022-10-13T11:35:49;97203.84;;;17.59;65.74
32747;BME280;19118;50.860;13.662;2022-10-13T11:41:22;97211.25;;;17.81;66.64
32747;BME280;19118;50.860;13.662;2022-10-13T11:46:45;97202.56;;;18.02;66.47
32747;BME280;19118;50.860;13.662;2022-10-13T11:57:29;97200.53;;;18.09;65.13
32747;BME280;19118;50.860;13.662;2022-10-13T12:02:33;97194.09;;;18.39;65.78
32747;BME280;19118;50.860;13.662;2022-10-13T12:07:36;97195.31;;;18.48;66.06
32747;BME280;19118;50.860;13.662;2022-10-13T12:12:45;97179.84;;;18.04;66.50
32747;BME280;19118;50.860;13.662;2022-10-13T12:17:47;97194.13;;;17.82;66.65
32747;BME280;19118;50.860;13.662;2022-10-13T12:22:48;97183.84;;;17.50;67.51
32747;BME280;19118;50.860;13.662;2022-10-13T12:27:51;97184.94;;;17.37;68.04
32747;BME280;19118;50.860;13.662;2022-10-13T12:32:55;97180.31;;;17.73;68.57
32747;BME280;19118;50.860;13.662;2022-10-13T12:38:00;97184.50;;;17.81;68.55
32747;BME280;19118;50.860;13.662;2022-10-13T12:43:03;97183.53;;;17.87;68.47
32747;BME280;19118;50.860;13.662;2022-10-13T12:48:04;97184.56;;;18.14;68.53
32747;BME280;19118;50.860;13.662;2022-10-13T12:58:18;97175.03;;;17.90;70.81
32747;BME280;19118;50.860;13.662;2022-10-13T13:03:22;97162.69;;;17.89;71.35
32747;BME280;19118;50.860;13.662;2022-10-13T13:08:27;97173.31;;;17.84;71.43
32747;BME280;19118;50.860;13.662;2022-10-13T13:13:32;97177.41;;;17.63;72.45
32747;BME280;19118;50.860;13.662;2022-10-13T13:18:37;97177.50;;;17.28;72.83
32747;BME280;19118;50.860;13.662;2022-10-13T13:23:39;97177.03;;;17.31;72.20
32747;BME280;19118;50.860;13.662;2022-10-13T13:28:46;97171.63;;;17.02;73.45
32747;BME280;19118;50.860;13.662;2022-10-13T13:33:48;97169.75;;;17.14;74.40
32747;BME280;19118;50.860;13.662;2022-10-13T13:38:48;97165.31;;;17.20;72.79
32747;BME280;19118;50.860;13.662;2022-10-13T13:43:49;97165.34;;;17.08;72.94
32747;BME280;19118;50.860;13.662;2022-10-13T13:48:50;97171.28;;;16.75;73.42
32747;BME280;19118;50.860;13.662;2022-10-13T13:53:50;97156.50;;;17.08;73.50
32747;BME280;19118;50.860;13.662;2022-10-13T13:58:51;97166.50;;;17.12;73.40
32747;BME280;19118;50.860;13.662;2022-10-13T14:03:51;97161.88;;;16.96;74.08
32747;BME280;19118;50.860;13.662;2022-10-13T14:08:52;97157.00;;;16.70;74.75
32747;BME280;19118;50.860;13.662;2022-10-13T14:13:52;97160.47;;;16.58;75.64
32747;BME280;19118;50.860;13.662;2022-10-13T14:19:00;97139.34;;;16.92;74.33
32747;BME280;19118;50.860;13.662;2022-10-13T14:24:01;97140.75;;;16.83;74.43
32747;BME280;19118;50.860;13.662;2022-10-13T14:29:01;97150.94;;;16.63;75.77
32747;BME280;19118;50.860;13.662;2022-10-13T14:34:02;97140.25;;;16.39;75.97
32747;BME280;19118;50.860;13.662;2022-10-13T14:39:06;97141.72;;;16.12;77.59
32747;BME280;19118;50.860;13.662;2022-10-13T14:44:10;97142.75;;;15.51;79.54
32747;BME280;19118;50.860;13.662;2022-10-13T14:49:11;97133.47;;;15.05;82.39
32747;BME280;19118;50.860;13.662;2022-10-13T14:54:15;97132.59;;;14.74;84.35
32747;BME280;19118;50.860;13.662;2022-10-13T14:59:16;97121.75;;;14.51;85.98
32747;BME280;19118;50.860;13.662;2022-10-13T15:04:17;97122.97;;;14.48;86.75
32747;BME280;19118;50.860;13.662;2022-10-13T15:09:18;97116.09;;;14.41;88.63
32747;BME280;19118;50.860;13.662;2022-10-13T15:14:18;97127.16;;;14.38;89.49
32747;BME280;19118;50.860;13.662;2022-10-13T15:19:19;97118.91;;;14.21;90.67
32747;BME280;19118;50.860;13.662;2022-10-13T15:24:19;97106.66;;;13.95;91.70
32747;BME280;19118;50.860;13.662;2022-10-13T15:29:25;97107.59;;;13.76;92.17
32747;BME280;19118;50.860;13.662;2022-10-13T15:34:25;97105.16;;;13.74;92.39
32747;BME280;19118;50.860;13.662;2022-10-13T15:39:26;97108.53;;;13.56;93.35
32747;BME280;19118;50.860;13.662;2022-10-13T15:44:26;97113.13;;;13.36;94.05
32747;BME280;19118;50.860;13.662;2022-10-13T15:49:27;97105.03;;;13.18;95.16
32747;BME280;19118;50.860;13.662;2022-10-13T15:54:27;97113.66;;;13.06;95.24
32747;BME280;19118;50.860;13.662;2022-10-13T15:59:28;97108.19;;;12.88;96.43
32747;BME280;19118;50.860;13.662;2022-10-13T16:04:28;97109.25;;;12.67;97.24
32747;BME280;19118;50.860;13.662;2022-10-13T16:09:30;97114.59;;;12.54;97.83
32747;BME280;19118;50.860;13.662;2022-10-13T16:14:30;97107.47;;;12.41;98.68
32747;BME280;19118;50.860;13.662;2022-10-13T16:19:31;97099.13;;;12.31;99.40
32747;BME280;19118;50.860;13.662;2022-10-13T16:24:32;97114.84;;;12.19;99.79
32747;BME280;19118;50.860;13.662;2022-10-13T16:29:33;97105.06;;;12.13;100.00
32747;BME280;19118;50.860;13.662;2022-10-13T16:34:33;97099.53;;;12.08;100.00
32747;BME280;19118;50.860;13.662;2022-10-13T16:39:34;97095.47;;;12.06;100.00
32747;BME280;19118;50.860;13.662;2022-10-13T16:44:34;97104.44;;;11.91;100.00
32747;BME280;19118;50.860;13.662;2022-10-13T16:49:34;97105.59;;;11.76;100.00
32747;BME280;19118;50.860;13.662;2022-10-13T16:54:36;97115.59;;;11.67;100.00
32747;BME280;19118;50.860;13.662;2022-10-13T16:59:36;97110.69;;;11.57;100.00
32747;BME280;19118;50.860;13.662;2022-10-13T17:04:37;97109.81;;;11.44;100.00
32747;BME280;19118;50.860;13.662;2022-10-13T17:09:37;97113.31;;;11.44;100.00
32747;BME280;19118;50.860;13.662;2022-10-13T17:14:38;97118.13;;;11.27;100.00
32747;BME280;19118;50.860;13.662;2022-10-13T17:19:38;97119.13;;;11.13;100.00
32747;BME280;19118;50.860;13.662;2022-10-13T17:24:38;97128.63;;;11.01;100.00
32747;BME280;19118;50.860;13.662;2022-10-13T17:29:42;97138.34;;;10.94;100.00
32747;BME280;19118;50.860;13.662;2022-10-13T17:34:42;97142.78;;;10.80;100.00
32747;BME280;19118;50.860;13.662;2022-10-13T17:39:45;97139.94;;;10.82;100.00
32747;BME280;19118;50.860;13.662;2022-10-13T17:44:49;97148.81;;;10.67;100.00
32747;BME280;19118;50.860;13.662;2022-10-13T17:49:50;97143.44;;;10.54;100.00
32747;BME280;19118;50.860;13.662;2022-10-13T17:54:50;97144.50;;;10.32;100.00
32747;BME280;19118;50.860;13.662;2022-10-13T17:59:51;97140.34;;;10.23;100.00
32747;BME280;19118;50.860;13.662;2022-10-13T18:04:52;97138.13;;;10.05;100.00
32747;BME280;19118;50.860;13.662;2022-10-13T18:09:52;97134.97;;;9.88;100.00
32747;BME280;19118;50.860;13.662;2022-10-13T18:14:53;97139.97;;;10.04;100.00
32747;BME280;19118;50.860;13.662;2022-10-13T18:19:53;97132.44;;;10.01;100.00
32747;BME280;19118;50.860;13.662;2022-10-13T18:24:53;97135.16;;;9.86;100.00
32747;BME280;19118;50.860;13.662;2022-10-13T18:29:54;97132.81;;;9.98;100.00
32747;BME280;19118;50.860;13.662;2022-10-13T18:34:55;97141.59;;;10.05;100.00
32747;BME280;19118;50.860;13.662;2022-10-13T18:39:55;97132.81;;;9.98;100.00
32747;BME280;19118;50.860;13.662;2022-10-13T18:44:56;97129.69;;;9.88;100.00
32747;BME280;19118;50.860;13.662;2022-10-13T18:49:56;97141.28;;;9.72;100.00
32747;BME280;19118;50.860;13.662;2022-10-13T18:54:56;97133.88;;;9.61;100.00
32747;BME280;19118;50.860;13.662;2022-10-13T18:59:57;97129.16;;;9.56;100.00
32747;BME280;19118;50.860;13.662;2022-10-13T19:05:02;97128.47;;;9.69;100.00
32747;BME280;19118;50.860;13.662;2022-10-13T19:10:03;97116.78;;;9.78;100.00
32747;BME280;19118;50.860;13.662;2022-10-13T19:15:04;97109.28;;;9.82;100.00
32747;BME280;19118;50.860;13.662;2022-10-13T19:20:04;97099.28;;;9.99;100.00
32747;BME280;19118;50.860;13.662;2022-10-13T19:25:05;97103.97;;;10.03;100.00
32747;BME280;19118;50.860;13.662;2022-10-13T19:30:06;97103.59;;;10.06;100.00
32747;BME280;19118;50.860;13.662;2022-10-13T19:35:07;97105.41;;;9.78;100.00
32747;BME280;19118;50.860;13.662;2022-10-13T19:40:08;97104.81;;;9.61;100.00
32747;BME280;19118;50.860;13.662;2022-10-13T19:45:09;97108.34;;;9.47;100.00
32747;BME280;19118;50.860;13.662;2022-10-13T19:50:10;97095.13;;;9.25;100.00
32747;BME280;19118;50.860;13.662;2022-10-13T19:55:11;97101.19;;;9.04;100.00
32747;BME280;19118;50.860;13.662;2022-10-13T20:00:12;97103.59;;;8.85;100.00
32747;BME280;19118;50.860;13.662;2022-10-13T20:05:15;97110.63;;;8.63;100.00
32747;BME280;19118;50.860;13.662;2022-10-13T20:10:15;97109.06;;;8.39;100.00
32747;BME280;19118;50.860;13.662;2022-10-13T20:15:16;97115.63;;;8.20;100.00
32747;BME280;19118;50.860;13.662;2022-10-13T20:20:18;97125.16;;;8.06;100.00
32747;BME280;19118;50.860;13.662;2022-10-13T20:25:18;97126.47;;;7.87;100.00
32747;BME280;19118;50.860;13.662;2022-10-13T20:30:19;97129.16;;;7.79;100.00
32747;BME280;19118;50.860;13.662;2022-10-13T20:35:19;97134.81;;;7.68;100.00
32747;BME280;19118;50.860;13.662;2022-10-13T20:40:20;97129.22;;;7.71;100.00
32747;BME280;19118;50.860;13.662;2022-10-13T20:45:20;97123.59;;;7.74;100.00
32747;BME280;19118;50.860;13.662;2022-10-13T20:50:21;97129.16;;;7.79;100.00
32747;BME280;19118;50.860;13.662;2022-10-13T20:55:21;97122.59;;;7.75;100.00
32747;BME280;19118;50.860;13.662;2022-10-13T21:00:22;97121.84;;;7.67;100.00
32747;BME280;19118;50.860;13.662;2022-10-13T21:05:22;97122.63;;;7.52;100.00
32747;BME280;19118;50.860;13.662;2022-10-13T21:10:23;97131.97;;;7.55;100.00
32747;BME280;19118;50.860;13.662;2022-10-13T21:15:24;97128.28;;;7.64;100.00
32747;BME280;19118;50.860;13.662;2022-10-13T21:20:24;97122.25;;;7.55;100.00
32747;BME280;19118;50.860;13.662;2022-10-13T21:25:25;97126.25;;;7.51;100.00
32747;BME280;19118;50.860;13.662;2022-10-13T21:30:29;97112.22;;;7.59;100.00
32747;BME280;19118;50.860;13.662;2022-10-13T21:35:30;97113.34;;;7.79;100.00
32747;BME280;19118;50.860;13.662;2022-10-13T21:40:30;97102.09;;;8.08;100.00
32747;BME280;19118;50.860;13.662;2022-10-13T21:45:31;97108.47;;;8.29;100.00
32747;BME280;19118;50.860;13.662;2022-10-13T21:50:31;97101.78;;;8.41;100.00
32747;BME280;19118;50.860;13.662;2022-10-13T21:55:31;97114.34;;;8.54;100.00
32747;BME280;19118;50.860;13.662;2022-10-13T22:00:32;97112.63;;;8.61;100.00
32747;BME280;19118;50.860;13.662;2022-10-13T22:05:33;97108.59;;;8.65;100.00
32747;BME280;19118;50.860;13.662;2022-10-13T22:10:34;97106.78;;;8.80;100.00
32747;BME280;19118;50.860;13.662;2022-10-13T22:15:35;97101.13;;;8.98;100.00
32747;BME280;19118;50.860;13.662;2022-10-13T22:20:36;97092.91;;;9.08;100.00
32747;BME280;19118;50.860;13.662;2022-10-13T22:25:44;97091.44;;;9.20;100.00
32747;BME280;19118;50.860;13.662;2022-10-13T22:30:44;97084.66;;;9.32;100.00
32747;BME280;19118;50.860;13.662;2022-10-13T22:35:46;97078.25;;;9.41;100.00
32747;BME280;19118;50.860;13.662;2022-10-13T22:40:47;97063.56;;;9.53;100.00
32747;BME280;19118;50.860;13.662;2022-10-13T22:45:49;97060.13;;;9.59;100.00
32747;BME280;19118;50.860;13.662;2022-10-13T22:50:50;97052.91;;;9.68;100.00
32747;BME280;19118;50.860;13.662;2022-10-13T22:55:50;97044.28;;;9.59;100.00
32747;BME280;19118;50.860;13.662;2022-10-13T23:00:50;97050.97;;;9.34;100.00
32747;BME280;19118;50.860;13.662;2022-10-13T23:05:51;97056.50;;;9.18;100.00
32747;BME280;19118;50.860;13.662;2022-10-13T23:10:51;97056.16;;;9.27;100.00
32747;BME280;19118;50.860;13.662;2022-10-13T23:15:51;97069.13;;;9.44;100.00
32747;BME280;19118;50.860;13.662;2022-10-13T23:20:52;97067.81;;;9.54;100.00
32747;BME280;19118;50.860;13.662;2022-10-13T23:25:54;97071.09;;;9.56;100.00
32747;BME280;19118;50.860;13.662;2022-10-13T23:30:58;97057.69;;;9.58;100.00
32747;BME280;19118;50.860;13.662;2022-10-13T23:36:01;97052.91;;;9.68;100.00
32747;BME280;19118;50.860;13.662;2022-10-13T23:41:07;97049.56;;;9.81;100.00
32747;BME280;19118;50.860;13.662;2022-10-13T23:46:10;97050.06;;;9.70;100.00
32747;BME280;19118;50.860;13.662;2022-10-13T23:51:16;97050.72;;;9.50;100.00
32747;BME280;19118;50.860;13.662;2022-10-13T23:56:17;97053.03;;;9.39;100.00
